createdAt,value
2016-07-08T00:00:00.435Z,17.63
2016-07-08T00:00:11.075Z,17.58
2016-07-08T00:00:21.079Z,17.62
2016-07-08T00:00:31.085Z,17.62
2016-07-08T00:00:40.455Z,17.63
2016-07-08T00:00:51.097Z,17.59
2016-07-08T00:01:01.104Z,17.59
2016-07-08T00:01:11.107Z,17.56
2016-07-08T00:01:20.478Z,17.62
2016-07-08T00:01:30.483Z,17.59
2016-07-08T00:01:41.124Z,17.56
2016-07-08T00:01:51.131Z,17.59
2016-07-08T00:02:00.500Z,17.55
2016-07-08T00:02:18.960Z,17.58
2016-07-08T00:02:28.956Z,17.58
2016-07-08T00:02:38.319Z,17.66
2016-07-08T00:02:48.960Z,17.66
2016-07-08T00:02:58.963Z,17.54
2016-07-08T00:03:08.335Z,17.55
2016-07-08T00:03:18.343Z,17.55
2016-07-08T00:03:28.982Z,17.64
2016-07-08T00:03:38.353Z,17.55
2016-07-08T00:03:48.994Z,17.55
2016-07-08T00:03:59.006Z,17.54
2016-07-08T00:04:08.398Z,17.59
2016-07-08T00:04:19.010Z,17.68
2016-07-08T00:04:29.017Z,17.51
2016-07-08T00:04:39.022Z,17.55
2016-07-08T00:04:49.027Z,17.59
2016-07-08T00:04:59.030Z,17.59
2016-07-08T00:05:09.040Z,17.59
2016-07-08T00:05:18.406Z,17.58
2016-07-08T00:05:28.412Z,17.55
2016-07-08T00:05:39.054Z,17.54
2016-07-08T00:05:49.058Z,17.59
2016-07-08T00:05:59.066Z,17.56
2016-07-08T00:06:08.435Z,17.58
2016-07-08T00:06:19.075Z,17.52
2016-07-08T00:06:29.081Z,17.51
2016-07-08T00:06:39.086Z,17.46
2016-07-08T00:06:48.457Z,17.46
2016-07-08T00:06:59.097Z,17.51
2016-07-08T00:07:09.102Z,17.48
2016-07-08T00:07:18.476Z,17.49
2016-07-08T00:07:29.114Z,17.54
2016-07-08T00:07:39.132Z,17.43
2016-07-08T00:07:49.126Z,17.52
2016-07-08T00:07:59.130Z,17.41
2016-07-08T00:08:08.503Z,17.4
2016-07-08T00:08:19.139Z,17.44
2016-07-08T00:08:29.145Z,17.46
2016-07-08T00:08:39.152Z,17.48
2016-07-08T00:08:48.524Z,17.43
2016-07-08T00:08:59.165Z,17.41
2016-07-08T00:09:09.171Z,17.48
2016-07-08T00:09:19.177Z,17.43
2016-07-08T00:09:28.543Z,17.4
2016-07-08T00:09:38.549Z,17.48
2016-07-08T00:09:49.192Z,17.34
2016-07-08T00:09:59.216Z,17.4
2016-07-08T00:10:09.199Z,17.4
2016-07-08T00:10:18.573Z,17.36
2016-07-08T00:10:29.216Z,17.41
2016-07-08T00:10:39.219Z,17.36
2016-07-08T00:10:49.224Z,17.36
2016-07-08T00:10:59.230Z,17.41
2016-07-08T00:11:09.234Z,17.41
2016-07-08T00:11:18.604Z,17.33
2016-07-08T00:11:28.610Z,17.33
2016-07-08T00:11:39.252Z,17.38
2016-07-08T00:11:49.257Z,17.34
2016-07-08T00:11:58.627Z,17.33
2016-07-08T00:12:08.632Z,17.37
2016-07-08T00:12:19.272Z,17.34
2016-07-08T00:12:29.277Z,17.43
2016-07-08T00:12:38.648Z,17.4
2016-07-08T00:12:48.652Z,17.36
2016-07-08T00:12:59.298Z,17.31
2016-07-08T00:13:08.666Z,17.37
2016-07-08T00:13:19.307Z,17.36
2016-07-08T00:13:29.312Z,17.33
2016-07-08T00:13:38.680Z,17.37
2016-07-08T00:13:48.687Z,17.33
2016-07-08T00:13:59.325Z,17.31
2016-07-08T00:14:09.334Z,17.26
2016-07-08T00:14:18.704Z,17.31
2016-07-08T00:14:29.344Z,17.37
2016-07-08T00:14:39.350Z,17.31
2016-07-08T00:14:49.353Z,17.34
2016-07-08T00:14:59.361Z,17.3
2016-07-08T00:15:08.736Z,17.28
2016-07-08T00:15:19.372Z,17.38
2016-07-08T00:15:29.380Z,17.37
2016-07-08T00:15:39.382Z,17.36
2016-07-08T00:15:49.387Z,17.31
2016-07-08T00:15:59.393Z,17.34
2016-07-08T00:16:09.397Z,17.31
2016-07-08T00:16:18.768Z,17.36
2016-07-08T00:16:29.409Z,17.31
2016-07-08T00:16:38.782Z,17.28
2016-07-08T00:16:48.786Z,17.36
2016-07-08T00:16:58.797Z,17.33
2016-07-08T00:17:08.796Z,17.34
2016-07-08T00:17:19.436Z,17.31
2016-07-08T00:17:29.443Z,17.26
2016-07-08T00:17:38.811Z,17.26
2016-07-08T00:17:49.453Z,17.26
2016-07-08T00:17:58.824Z,17.25
2016-07-08T00:18:09.464Z,17.15
2016-07-08T00:18:19.472Z,17.26
2016-07-08T00:18:28.840Z,17.3
2016-07-08T00:18:39.484Z,17.16
2016-07-08T00:18:49.486Z,17.25
2016-07-08T00:18:58.856Z,17.31
2016-07-08T00:19:09.495Z,17.18
2016-07-08T00:19:19.502Z,17.33
2016-07-08T00:19:28.872Z,17.3
2016-07-08T00:19:38.882Z,17.3
2016-07-08T00:19:48.889Z,17.31
2016-07-08T00:19:59.527Z,17.22
2016-07-08T00:20:09.528Z,17.25
2016-07-08T00:20:19.536Z,17.25
2016-07-08T00:20:29.542Z,17.28
2016-07-08T00:20:38.911Z,17.31
2016-07-08T00:20:48.918Z,17.31
2016-07-08T00:20:59.556Z,17.3
2016-07-08T00:21:08.931Z,17.21
2016-07-08T00:21:19.568Z,17.25
2016-07-08T00:21:29.571Z,17.23
2016-07-08T00:21:38.944Z,17.31
2016-07-08T00:21:49.583Z,17.28
2016-07-08T00:21:58.956Z,17.21
2016-07-08T00:22:08.965Z,17.18
2016-07-08T00:22:19.602Z,17.25
2016-07-08T00:22:29.606Z,17.23
2016-07-08T00:22:38.977Z,17.3
2016-07-08T00:22:49.618Z,17.19
2016-07-08T00:22:58.987Z,17.33
2016-07-08T00:23:09.639Z,17.28
2016-07-08T00:23:19.642Z,17.25
2016-07-08T00:23:29.003Z,17.31
2016-07-08T00:23:39.649Z,17.25
2016-07-08T00:23:49.651Z,17.22
2016-07-08T00:23:59.654Z,17.28
2016-07-08T00:24:09.026Z,17.28
2016-07-08T00:24:19.666Z,17.25
2016-07-08T00:24:29.037Z,17.28
2016-07-08T00:24:39.046Z,17.26
2016-07-08T00:24:49.048Z,17.26
2016-07-08T00:24:59.053Z,17.3
2016-07-08T00:25:09.692Z,17.31
2016-07-08T00:25:19.064Z,17.26
2016-07-08T00:25:29.141Z,17.31
2016-07-08T00:25:39.711Z,17.31
2016-07-08T00:25:49.722Z,17.33
2016-07-08T00:25:59.723Z,17.31
2016-07-08T00:26:09.728Z,17.33
2016-07-08T00:26:19.738Z,17.31
2016-07-08T00:26:29.738Z,17.3
2016-07-08T00:26:39.109Z,17.34
2016-07-08T00:26:49.751Z,17.36
2016-07-08T00:26:59.116Z,17.34
2016-07-08T00:27:09.758Z,17.33
2016-07-08T00:27:19.765Z,17.31
2016-07-08T00:27:29.135Z,17.28
2016-07-08T00:27:39.773Z,17.33
2016-07-08T00:27:49.781Z,17.38
2016-07-08T00:27:59.789Z,17.28
2016-07-08T00:28:09.158Z,17.36
2016-07-08T00:28:19.799Z,17.33
2016-07-08T00:28:29.802Z,17.31
2016-07-08T00:28:39.808Z,17.28
2016-07-08T00:28:49.812Z,17.28
2016-07-08T00:28:59.821Z,17.33
2016-07-08T00:29:09.823Z,17.36
2016-07-08T00:29:19.831Z,17.28
2016-07-08T00:29:29.836Z,17.31
2016-07-08T00:29:39.206Z,17.37
2016-07-08T00:29:49.213Z,17.31
2016-07-08T00:29:59.217Z,17.37
2016-07-08T00:30:09.221Z,17.41
2016-07-08T00:30:19.862Z,17.44
2016-07-08T00:30:29.869Z,17.28
2016-07-08T00:30:39.239Z,17.38
2016-07-08T00:30:49.880Z,17.34
2016-07-08T00:30:59.884Z,17.34
2016-07-08T00:31:09.894Z,17.36
2016-07-08T00:31:19.927Z,17.4
2016-07-08T00:31:29.901Z,17.33
2016-07-08T00:31:39.273Z,17.38
2016-07-08T00:31:49.275Z,17.37
2016-07-08T00:31:59.283Z,17.3
2016-07-08T00:32:09.922Z,17.33
2016-07-08T00:32:19.928Z,17.37
2016-07-08T00:32:29.932Z,17.33
2016-07-08T00:32:39.939Z,17.31
2016-07-08T00:32:49.945Z,17.37
2016-07-08T00:32:59.315Z,17.33
2016-07-08T00:33:09.320Z,17.43
2016-07-08T00:33:19.960Z,17.37
2016-07-08T00:33:29.331Z,17.38
2016-07-08T00:33:39.973Z,17.37
2016-07-08T00:33:49.980Z,17.31
2016-07-08T00:33:59.983Z,17.3
2016-07-08T00:34:09.987Z,17.38
2016-07-08T00:34:19.359Z,17.36
2016-07-08T00:34:29.999Z,17.36
2016-07-08T00:34:39.370Z,17.31
2016-07-08T00:34:50.015Z,17.31
2016-07-08T00:34:59.378Z,17.38
2016-07-08T00:35:10.022Z,17.38
2016-07-08T00:35:20.030Z,17.36
2016-07-08T00:35:30.035Z,17.37
2016-07-08T00:35:40.039Z,17.48
2016-07-08T00:35:50.044Z,17.37
2016-07-08T00:36:00.058Z,17.4
2016-07-08T00:36:09.419Z,17.4
2016-07-08T00:36:20.058Z,17.38
2016-07-08T00:36:30.066Z,17.36
2016-07-08T00:36:40.071Z,17.36
2016-07-08T00:36:50.077Z,17.4
2016-07-08T00:37:00.087Z,17.38
2016-07-08T00:37:09.454Z,17.44
2016-07-08T00:37:19.458Z,17.43
2016-07-08T00:37:30.097Z,17.4
2016-07-08T00:37:40.103Z,17.44
2016-07-08T00:37:49.472Z,17.44
2016-07-08T00:38:00.116Z,17.36
2016-07-08T00:38:09.481Z,17.4
2016-07-08T00:38:19.507Z,17.43
2016-07-08T00:38:30.130Z,17.41
2016-07-08T00:38:39.501Z,17.36
2016-07-08T00:38:50.142Z,17.37
2016-07-08T00:39:00.147Z,17.4
2016-07-08T00:39:10.153Z,17.44
2016-07-08T00:39:20.156Z,17.43
2016-07-08T00:39:29.531Z,17.37
2016-07-08T00:39:40.241Z,17.46
2016-07-08T00:39:49.537Z,17.4
2016-07-08T00:40:00.183Z,17.49
2016-07-08T00:40:09.554Z,17.38
2016-07-08T00:40:20.192Z,17.46
2016-07-08T00:40:30.196Z,17.46
2016-07-08T00:40:40.202Z,17.54
2016-07-08T00:40:49.648Z,17.54
2016-07-08T00:41:00.211Z,17.49
2016-07-08T00:41:09.587Z,17.48
2016-07-08T00:41:20.233Z,17.44
2016-07-08T00:41:29.595Z,17.52
2016-07-08T00:41:40.234Z,17.48
2016-07-08T00:41:50.237Z,17.48
2016-07-08T00:42:00.247Z,17.52
2016-07-08T00:42:09.615Z,17.48
2016-07-08T00:42:20.256Z,17.51
2016-07-08T00:42:30.344Z,17.46
2016-07-08T00:42:40.269Z,17.46
2016-07-08T00:42:49.638Z,17.48
2016-07-08T00:42:59.642Z,17.51
2016-07-08T00:43:09.649Z,17.54
2016-07-08T00:43:20.292Z,17.56
2016-07-08T00:43:29.659Z,17.54
2016-07-08T00:43:40.300Z,17.52
2016-07-08T00:43:49.670Z,17.52
2016-07-08T00:44:00.315Z,17.54
2016-07-08T00:44:10.318Z,17.51
2016-07-08T00:44:20.324Z,17.55
2016-07-08T00:44:29.699Z,17.54
2016-07-08T00:44:39.701Z,17.59
2016-07-08T00:44:49.704Z,17.56
2016-07-08T00:45:00.349Z,17.49
2016-07-08T00:45:10.353Z,17.56
2016-07-08T00:45:20.388Z,17.56
2016-07-08T00:45:29.728Z,17.55
2016-07-08T00:45:40.367Z,17.56
2016-07-08T00:45:50.369Z,17.52
2016-07-08T00:46:00.378Z,17.62
2016-07-08T00:46:09.748Z,17.56
2016-07-08T00:46:20.391Z,17.64
2016-07-08T00:46:30.394Z,17.59
2016-07-08T00:46:40.406Z,17.56
2016-07-08T00:46:49.776Z,17.63
2016-07-08T00:46:59.773Z,17.56
2016-07-08T00:47:10.416Z,17.64
2016-07-08T00:47:19.788Z,17.54
2016-07-08T00:47:29.789Z,17.66
2016-07-08T00:47:40.434Z,17.59
2016-07-08T00:47:50.446Z,17.62
2016-07-08T00:48:00.445Z,17.63
2016-07-08T00:48:10.453Z,17.63
2016-07-08T00:48:20.454Z,17.59
2016-07-08T00:48:29.825Z,17.63
2016-07-08T00:48:39.832Z,17.66
2016-07-08T00:48:50.471Z,17.62
2016-07-08T00:49:00.475Z,17.66
2016-07-08T00:49:09.847Z,17.64
2016-07-08T00:49:19.853Z,17.74
2016-07-08T00:49:30.492Z,17.66
2016-07-08T00:49:40.498Z,17.7
2016-07-08T00:49:50.505Z,17.66
2016-07-08T00:50:00.512Z,17.72
2016-07-08T00:50:10.515Z,17.74
2016-07-08T00:50:20.521Z,17.74
2016-07-08T00:50:30.528Z,17.7
2016-07-08T00:50:40.530Z,17.71
2016-07-08T00:50:50.540Z,17.7
2016-07-08T00:51:00.545Z,17.71
2016-07-08T00:51:09.911Z,17.68
2016-07-08T00:51:20.551Z,17.7
2016-07-08T00:51:30.558Z,17.71
2016-07-08T00:51:39.935Z,17.77
2016-07-08T00:51:50.571Z,17.78
2016-07-08T00:52:00.578Z,17.75
2016-07-08T00:52:10.581Z,17.79
2016-07-08T00:52:20.584Z,17.75
2016-07-08T00:52:29.955Z,17.75
2016-07-08T00:52:40.600Z,17.82
2016-07-08T00:52:49.966Z,17.78
2016-07-08T00:53:00.608Z,17.81
2016-07-08T00:53:09.981Z,17.74
2016-07-08T00:53:20.621Z,17.77
2016-07-08T00:53:29.988Z,17.75
2016-07-08T00:53:40.638Z,17.68
2016-07-08T00:53:50.636Z,17.78
2016-07-08T00:54:00.649Z,17.7
2016-07-08T00:54:10.645Z,17.68
2016-07-08T00:54:20.651Z,17.72
2016-07-08T00:54:30.654Z,17.7
2016-07-08T00:54:40.661Z,17.72
2016-07-08T00:54:50.668Z,17.68
2016-07-08T00:55:00.671Z,17.7
2016-07-08T00:55:10.680Z,17.71
2016-07-08T00:55:20.686Z,17.7
2016-07-08T00:55:30.053Z,17.68
2016-07-08T00:55:40.135Z,17.72
2016-07-08T00:55:50.703Z,17.7
2016-07-08T00:56:00.706Z,17.66
2016-07-08T00:56:10.712Z,17.71
2016-07-08T00:56:20.082Z,17.71
2016-07-08T00:56:30.088Z,17.71
2016-07-08T00:56:40.729Z,17.74
2016-07-08T00:56:50.735Z,17.66
2016-07-08T00:57:00.737Z,17.68
2016-07-08T00:57:10.745Z,17.68
2016-07-08T00:57:20.748Z,17.64
2016-07-08T00:57:30.121Z,17.66
2016-07-08T00:57:40.123Z,17.68
2016-07-08T00:57:50.766Z,17.7
2016-07-08T00:58:00.137Z,17.63
2016-07-08T00:58:10.144Z,17.68
2016-07-08T00:58:20.148Z,17.7
2016-07-08T00:58:30.790Z,17.68
2016-07-08T00:58:40.792Z,17.71
2016-07-08T00:58:50.798Z,17.7
2016-07-08T00:59:00.804Z,17.68
2016-07-08T00:59:10.811Z,17.7
2016-07-08T00:59:20.814Z,17.68
2016-07-08T00:59:30.824Z,17.68
2016-07-08T00:59:40.426Z,17.59
2016-07-08T01:00:31.644Z,17.66
2016-07-08T01:00:40.478Z,17.64
2016-07-08T01:00:50.482Z,17.54
2016-07-08T01:01:01.404Z,17.7
2016-07-08T01:01:21.053Z,17.64
2016-07-08T01:01:29.885Z,17.7
2016-07-08T01:02:47.627Z,17.66
2016-07-08T01:03:45.907Z,17.7
2016-07-08T01:03:51.433Z,17.64
2016-07-08T01:04:10.860Z,17.59
2016-07-08T01:04:34.821Z,17.68
2016-07-08T01:04:54.372Z,17.63
2016-07-08T01:05:04.363Z,17.66
2016-07-08T01:05:15.004Z,17.62
2016-07-08T01:05:25.009Z,17.62
2016-07-08T01:05:35.016Z,17.55
2016-07-08T01:05:45.020Z,17.64
2016-07-08T01:05:55.025Z,17.55
2016-07-08T01:06:04.396Z,17.64
2016-07-08T01:06:14.402Z,17.62
2016-07-08T01:06:25.093Z,17.58
2016-07-08T01:06:35.047Z,17.62
2016-07-08T01:06:45.057Z,17.64
2016-07-08T01:06:55.060Z,17.59
2016-07-08T01:07:05.063Z,17.58
2016-07-08T01:07:15.069Z,17.59
2016-07-08T01:07:25.074Z,17.64
2016-07-08T01:07:35.080Z,17.63
2016-07-08T01:07:44.449Z,17.58
2016-07-08T01:07:55.092Z,17.62
2016-07-08T01:08:05.100Z,17.62
2016-07-08T01:08:15.103Z,17.68
2016-07-08T01:08:25.107Z,17.64
2016-07-08T01:08:35.113Z,17.58
2016-07-08T01:08:45.117Z,17.63
2016-07-08T01:08:55.125Z,17.58
2016-07-08T01:09:05.130Z,17.59
2016-07-08T01:09:15.138Z,17.62
2016-07-08T01:09:25.140Z,17.58
2016-07-08T01:09:34.511Z,17.66
2016-07-08T01:09:44.516Z,17.66
2016-07-08T01:09:54.520Z,17.64
2016-07-08T01:10:05.162Z,17.63
2016-07-08T01:10:15.168Z,17.7
2016-07-08T01:10:25.175Z,17.68
2016-07-08T01:10:35.179Z,17.58
2016-07-08T01:10:44.546Z,17.63
2016-07-08T01:10:55.192Z,17.63
2016-07-08T01:11:04.562Z,17.62
2016-07-08T01:11:14.564Z,17.62
2016-07-08T01:11:24.570Z,17.62
2016-07-08T01:11:35.212Z,17.63
2016-07-08T01:11:45.217Z,17.59
2016-07-08T01:11:54.587Z,17.59
2016-07-08T01:12:04.593Z,17.66
2016-07-08T01:12:15.233Z,17.62
2016-07-08T01:12:24.604Z,17.66
2016-07-08T01:12:34.608Z,17.64
2016-07-08T01:12:44.614Z,17.63
2016-07-08T01:12:55.257Z,17.63
2016-07-08T01:13:04.625Z,17.64
2016-07-08T01:13:15.265Z,17.63
2016-07-08T01:13:25.272Z,17.66
2016-07-08T01:13:35.278Z,17.66
2016-07-08T01:13:44.647Z,17.62
2016-07-08T01:13:54.652Z,17.59
2016-07-08T01:14:05.292Z,17.62
2016-07-08T01:14:15.299Z,17.7
2016-07-08T01:14:24.670Z,17.63
2016-07-08T01:14:35.309Z,17.68
2016-07-08T01:14:44.680Z,17.66
2016-07-08T01:14:54.686Z,17.66
2016-07-08T01:15:05.361Z,17.64
2016-07-08T01:15:15.330Z,17.64
2016-07-08T01:15:24.703Z,17.66
2016-07-08T01:15:35.342Z,17.66
2016-07-08T01:15:44.713Z,17.68
2016-07-08T01:15:55.352Z,17.64
2016-07-08T01:16:04.726Z,17.64
2016-07-08T01:16:15.365Z,17.59
2016-07-08T01:16:25.370Z,17.68
2016-07-08T01:16:34.741Z,17.7
2016-07-08T01:16:45.380Z,17.68
2016-07-08T01:16:55.388Z,17.64
2016-07-08T01:17:04.759Z,17.66
2016-07-08T01:17:15.396Z,17.64
2016-07-08T01:17:24.769Z,17.64
2016-07-08T01:17:34.771Z,17.64
2016-07-08T01:17:44.779Z,17.64
2016-07-08T01:17:55.419Z,17.66
2016-07-08T01:18:05.426Z,17.64
2016-07-08T01:18:15.432Z,17.68
2016-07-08T01:18:25.438Z,17.68
2016-07-08T01:18:34.808Z,17.7
2016-07-08T01:18:44.814Z,17.7
2016-07-08T01:18:55.454Z,17.7
2016-07-08T01:19:04.822Z,17.59
2016-07-08T01:19:14.829Z,17.7
2016-07-08T01:19:24.836Z,17.7
2016-07-08T01:19:34.839Z,17.68
2016-07-08T01:19:44.849Z,17.64
2016-07-08T01:19:54.850Z,17.66
2016-07-08T01:20:04.856Z,17.71
2016-07-08T01:20:15.497Z,17.68
2016-07-08T01:20:25.502Z,17.68
2016-07-08T01:20:35.506Z,17.74
2016-07-08T01:20:44.880Z,17.71
2016-07-08T01:20:55.548Z,17.68
2016-07-08T01:21:04.888Z,17.74
2016-07-08T01:21:14.895Z,17.72
2016-07-08T01:21:24.900Z,17.64
2016-07-08T01:21:34.905Z,17.68
2016-07-08T01:21:44.911Z,17.68
2016-07-08T01:21:55.551Z,17.68
2016-07-08T01:22:05.556Z,17.66
2016-07-08T01:22:15.562Z,17.7
2016-07-08T01:22:25.568Z,17.64
2016-07-08T01:22:35.570Z,17.68
2016-07-08T01:22:45.580Z,17.64
2016-07-08T01:22:54.951Z,17.64
2016-07-08T01:23:05.590Z,17.68
2016-07-08T01:23:14.959Z,17.7
2016-07-08T01:23:25.600Z,17.66
2016-07-08T01:23:34.971Z,17.66
2016-07-08T01:23:45.612Z,17.66
2016-07-08T01:23:55.636Z,17.68
2016-07-08T01:24:05.620Z,17.62
2016-07-08T01:24:14.996Z,17.62
2016-07-08T01:24:25.631Z,17.63
2016-07-08T01:24:35.637Z,17.59
2016-07-08T01:24:45.646Z,17.62
2016-07-08T01:24:55.649Z,17.59
2016-07-08T01:25:05.655Z,17.7
2016-07-08T01:25:15.659Z,17.7
2016-07-08T01:25:25.032Z,17.59
2016-07-08T01:25:35.673Z,17.59
2016-07-08T01:25:45.676Z,17.63
2016-07-08T01:25:55.685Z,17.59
2016-07-08T01:26:05.691Z,17.66
2016-07-08T01:26:15.694Z,17.58
2016-07-08T01:26:25.697Z,17.55
2016-07-08T01:26:35.070Z,17.56
2016-07-08T01:26:45.076Z,17.55
2016-07-08T01:26:55.080Z,17.51
2016-07-08T01:27:05.084Z,17.56
2016-07-08T01:27:15.726Z,17.54
2016-07-08T01:27:25.730Z,17.55
2016-07-08T01:27:35.737Z,17.56
2016-07-08T01:27:45.742Z,17.63
2016-07-08T01:27:55.747Z,17.62
2016-07-08T01:28:05.753Z,17.55
2016-07-08T01:28:15.122Z,17.59
2016-07-08T01:28:25.765Z,17.54
2016-07-08T01:28:35.134Z,17.56
2016-07-08T01:28:45.775Z,17.52
2016-07-08T01:28:55.779Z,17.52
2016-07-08T01:29:05.786Z,17.62
2016-07-08T01:29:15.156Z,17.54
2016-07-08T01:29:25.171Z,17.56
2016-07-08T01:29:35.167Z,17.58
2016-07-08T01:29:45.810Z,17.49
2016-07-08T01:29:55.180Z,17.48
2016-07-08T01:30:05.819Z,17.52
2016-07-08T01:30:15.822Z,17.48
2016-07-08T01:30:25.829Z,17.54
2016-07-08T01:30:35.835Z,17.56
2016-07-08T01:30:45.207Z,17.51
2016-07-08T01:30:55.211Z,17.52
2016-07-08T01:31:05.851Z,17.48
2016-07-08T01:31:15.857Z,17.52
2016-07-08T01:31:25.866Z,17.51
2016-07-08T01:31:35.234Z,17.49
2016-07-08T01:31:45.875Z,17.44
2016-07-08T01:31:55.881Z,17.52
2016-07-08T01:32:05.883Z,17.49
2016-07-08T01:32:15.891Z,17.46
2016-07-08T01:32:25.260Z,17.49
2016-07-08T01:32:35.265Z,17.55
2016-07-08T01:32:45.271Z,17.51
2016-07-08T01:32:55.911Z,17.46
2016-07-08T01:33:05.285Z,17.52
2016-07-08T01:33:15.288Z,17.51
2016-07-08T01:33:25.927Z,17.49
2016-07-08T01:33:35.300Z,17.48
2016-07-08T01:33:45.938Z,17.52
2016-07-08T01:33:55.945Z,17.49
2016-07-08T01:34:05.950Z,17.49
2016-07-08T01:34:15.317Z,17.52
2016-07-08T01:34:25.961Z,17.52
2016-07-08T01:34:35.968Z,17.54
2016-07-08T01:34:45.974Z,17.44
2016-07-08T01:34:55.346Z,17.49
2016-07-08T01:35:05.991Z,17.49
2016-07-08T01:35:15.988Z,17.44
2016-07-08T01:35:25.359Z,17.49
2016-07-08T01:35:35.364Z,17.52
2016-07-08T01:35:46.005Z,17.44
2016-07-08T01:35:56.014Z,17.44
2016-07-08T01:36:06.017Z,17.51
2016-07-08T01:36:16.024Z,17.49
2016-07-08T01:36:26.027Z,17.49
2016-07-08T01:36:35.395Z,17.46
2016-07-08T01:36:46.036Z,17.49
2016-07-08T01:36:55.407Z,17.46
2016-07-08T01:37:06.053Z,17.51
2016-07-08T01:37:15.420Z,17.49
2016-07-08T01:37:26.063Z,17.49
2016-07-08T01:37:36.066Z,17.55
2016-07-08T01:37:46.070Z,17.51
2016-07-08T01:37:56.077Z,17.49
2016-07-08T01:38:06.080Z,17.48
2016-07-08T01:38:15.452Z,17.46
2016-07-08T01:38:26.094Z,17.48
2016-07-08T01:38:35.462Z,17.48
2016-07-08T01:38:46.104Z,17.46
2016-07-08T01:38:55.474Z,17.49
2016-07-08T01:39:06.114Z,17.49
2016-07-08T01:39:16.120Z,17.48
2016-07-08T01:39:25.489Z,17.56
2016-07-08T01:39:35.495Z,17.54
2016-07-08T01:39:46.138Z,17.51
2016-07-08T01:39:56.144Z,17.48
2016-07-08T01:40:06.149Z,17.49
2016-07-08T01:40:15.518Z,17.51
2016-07-08T01:40:26.158Z,17.44
2016-07-08T01:40:35.529Z,17.51
2016-07-08T01:40:46.171Z,17.46
2016-07-08T01:40:56.174Z,17.44
2016-07-08T01:41:06.178Z,17.52
2016-07-08T01:41:16.184Z,17.49
2016-07-08T01:41:25.554Z,17.49
2016-07-08T01:41:35.561Z,17.52
2016-07-08T01:41:45.569Z,17.52
2016-07-08T01:41:56.207Z,17.54
2016-07-08T01:42:06.214Z,17.46
2016-07-08T01:42:16.216Z,17.49
2016-07-08T01:42:26.224Z,17.49
2016-07-08T01:42:36.228Z,17.41
2016-07-08T01:42:46.237Z,17.38
2016-07-08T01:42:56.259Z,17.46
2016-07-08T01:43:06.248Z,17.48
2016-07-08T01:43:16.252Z,17.48
2016-07-08T01:43:25.620Z,17.55
2016-07-08T01:43:36.261Z,17.48
2016-07-08T01:43:46.266Z,17.52
2016-07-08T01:43:56.273Z,17.49
2016-07-08T01:44:06.279Z,17.49
2016-07-08T01:44:15.647Z,17.46
2016-07-08T01:44:26.289Z,17.51
2016-07-08T01:44:36.299Z,17.54
2016-07-08T01:44:46.300Z,17.55
2016-07-08T01:44:56.306Z,17.51
2016-07-08T01:45:06.310Z,17.54
2016-07-08T01:45:15.683Z,17.48
2016-07-08T01:45:26.321Z,17.51
2016-07-08T01:45:36.327Z,17.49
2016-07-08T01:45:46.335Z,17.46
2016-07-08T01:45:56.340Z,17.44
2016-07-08T01:46:05.710Z,17.51
2016-07-08T01:46:16.350Z,17.54
2016-07-08T01:46:26.354Z,17.51
2016-07-08T01:46:36.361Z,17.49
2016-07-08T01:46:46.363Z,17.46
2016-07-08T01:46:56.370Z,17.52
2016-07-08T01:47:06.378Z,17.48
2016-07-08T01:47:16.381Z,17.51
2016-07-08T01:47:25.755Z,17.51
2016-07-08T01:47:36.392Z,17.52
2016-07-08T01:47:46.396Z,17.46
2016-07-08T01:47:56.403Z,17.51
2016-07-08T01:48:06.410Z,17.48
2016-07-08T01:48:15.780Z,17.48
2016-07-08T01:48:26.421Z,17.51
2016-07-08T01:48:36.424Z,17.52
2016-07-08T01:48:46.434Z,17.48
2016-07-08T01:48:55.801Z,17.52
2016-07-08T01:49:06.444Z,17.52
2016-07-08T01:49:16.446Z,17.55
2016-07-08T01:49:26.453Z,17.59
2016-07-08T01:49:36.459Z,17.51
2016-07-08T01:49:45.831Z,17.46
2016-07-08T01:49:55.832Z,17.55
2016-07-08T01:50:05.841Z,17.51
2016-07-08T01:50:16.481Z,17.63
2016-07-08T01:50:25.855Z,17.51
2016-07-08T01:50:36.491Z,17.48
2016-07-08T01:50:46.500Z,17.46
2016-07-08T01:50:56.502Z,17.63
2016-07-08T01:51:05.871Z,17.51
2016-07-08T01:51:16.511Z,17.44
2016-07-08T01:51:25.883Z,17.49
2016-07-08T01:51:36.528Z,17.51
2016-07-08T01:51:46.530Z,17.51
2016-07-08T01:51:56.534Z,17.52
2016-07-08T01:52:05.905Z,17.54
2016-07-08T01:52:16.547Z,17.51
2016-07-08T01:52:26.552Z,17.54
2016-07-08T01:52:36.556Z,17.56
2016-07-08T01:52:45.928Z,17.51
2016-07-08T01:52:56.568Z,17.52
2016-07-08T01:53:06.572Z,17.58
2016-07-08T01:53:16.578Z,17.54
2016-07-08T01:53:26.584Z,17.54
2016-07-08T01:53:36.589Z,17.49
2016-07-08T01:53:46.597Z,17.55
2016-07-08T01:53:56.602Z,17.56
2016-07-08T01:54:06.606Z,17.56
2016-07-08T01:54:16.610Z,17.56
2016-07-08T01:54:26.616Z,17.56
2016-07-08T01:54:35.988Z,17.56
2016-07-08T01:54:46.673Z,17.63
2016-07-08T01:54:56.633Z,17.51
2016-07-08T01:55:06.005Z,17.58
2016-07-08T01:55:16.645Z,17.55
2016-07-08T01:55:26.649Z,17.58
2016-07-08T01:55:36.655Z,17.54
2016-07-08T01:55:46.661Z,17.55
2016-07-08T01:55:56.666Z,17.52
2016-07-08T01:56:06.034Z,17.55
2016-07-08T01:56:16.677Z,17.59
2016-07-08T01:56:26.681Z,17.54
2016-07-08T01:56:36.054Z,17.63
2016-07-08T01:56:46.693Z,17.62
2016-07-08T01:56:56.700Z,17.59
2016-07-08T01:57:06.703Z,17.56
2016-07-08T01:57:16.711Z,17.55
2016-07-08T01:57:26.716Z,17.56
2016-07-08T01:57:36.721Z,17.58
2016-07-08T01:57:46.726Z,17.62
2016-07-08T01:57:56.732Z,17.56
2016-07-08T01:58:06.738Z,17.64
2016-07-08T01:58:16.744Z,17.63
2016-07-08T01:58:26.745Z,17.59
2016-07-08T01:58:36.754Z,17.59
2016-07-08T01:58:46.795Z,17.64
2016-07-08T01:58:56.763Z,17.62
2016-07-08T01:59:06.134Z,17.62
2016-07-08T01:59:16.776Z,17.63
2016-07-08T01:59:26.780Z,17.58
2016-07-08T01:59:36.794Z,17.63
2016-07-08T01:59:46.155Z,17.59
2016-07-08T01:59:56.796Z,17.7
2016-07-08T02:00:06.171Z,17.63
2016-07-08T02:00:16.175Z,17.62
2016-07-08T02:00:26.179Z,17.59
2016-07-08T02:00:36.822Z,17.62
2016-07-08T02:00:46.831Z,17.62
2016-07-08T02:00:56.833Z,17.62
2016-07-08T02:01:06.838Z,17.59
2016-07-08T02:01:16.843Z,17.64
2016-07-08T02:01:26.847Z,17.7
2016-07-08T02:01:36.859Z,17.64
2016-07-08T02:01:46.862Z,17.63
2016-07-08T02:01:56.862Z,17.7
2016-07-08T02:02:06.868Z,17.7
2016-07-08T02:02:16.873Z,17.66
2016-07-08T02:02:26.880Z,17.7
2016-07-08T02:02:36.892Z,17.62
2016-07-08T02:02:46.893Z,17.63
2016-07-08T02:02:56.259Z,17.68
2016-07-08T02:03:06.266Z,17.71
2016-07-08T02:03:16.905Z,17.7
2016-07-08T02:03:26.917Z,17.7
2016-07-08T02:03:36.917Z,17.7
2016-07-08T02:03:46.287Z,17.68
2016-07-08T02:03:56.928Z,17.71
2016-07-08T02:04:06.300Z,17.72
2016-07-08T02:04:16.942Z,17.68
2016-07-08T02:04:26.316Z,17.71
2016-07-08T02:04:36.315Z,17.72
2016-07-08T02:04:46.955Z,17.72
2016-07-08T02:04:57.015Z,17.72
2016-07-08T02:05:06.971Z,17.7
2016-07-08T02:05:16.978Z,17.71
2016-07-08T02:05:26.341Z,17.71
2016-07-08T02:05:36.981Z,17.71
2016-07-08T02:05:46.988Z,17.7
2016-07-08T02:05:56.993Z,17.72
2016-07-08T02:06:06.999Z,17.7
2016-07-08T02:06:17.006Z,17.66
2016-07-08T02:06:27.009Z,17.66
2016-07-08T02:06:37.014Z,17.72
2016-07-08T02:06:46.389Z,17.74
2016-07-08T02:06:57.029Z,17.72
2016-07-08T02:07:07.033Z,17.75
2016-07-08T02:07:17.039Z,17.77
2016-07-08T02:07:27.042Z,17.74
2016-07-08T02:07:37.048Z,17.74
2016-07-08T02:07:46.418Z,17.71
2016-07-08T02:07:57.058Z,17.75
2016-07-08T02:08:07.065Z,17.71
2016-07-08T02:08:17.071Z,17.75
2016-07-08T02:08:26.441Z,17.72
2016-07-08T02:08:36.455Z,17.78
2016-07-08T02:08:47.086Z,17.79
2016-07-08T02:08:57.093Z,17.78
2016-07-08T02:09:07.096Z,17.79
2016-07-08T02:09:17.106Z,17.77
2016-07-08T02:09:27.110Z,17.81
2016-07-08T02:09:37.116Z,17.63
2016-07-08T02:09:46.486Z,17.78
2016-07-08T02:09:57.124Z,17.84
2016-07-08T02:10:07.132Z,17.79
2016-07-08T02:10:16.498Z,17.78
2016-07-08T02:10:27.142Z,17.79
2016-07-08T02:10:37.146Z,17.77
2016-07-08T02:10:47.153Z,17.79
2016-07-08T02:10:57.160Z,17.79
2016-07-08T02:11:07.165Z,17.79
2016-07-08T02:11:17.170Z,17.77
2016-07-08T02:11:27.176Z,17.81
2016-07-08T02:11:37.180Z,17.82
2016-07-08T02:11:46.550Z,17.75
2016-07-08T02:11:57.190Z,17.79
2016-07-08T02:12:07.196Z,17.84
2016-07-08T02:12:17.201Z,17.74
2016-07-08T02:12:27.206Z,17.86